• Join FlightAware (Why Join?)
  • Login
  • US Flag 
10:44AM EDT


 

Airport Tracker/Info


-or-


 

Live Flight TrackerFlight Track Log ✈ N488VC ✈ 03-May-2013 ✈ KHPN - KBED

Flight Track Log - Related Links

Times and Time Zones

All times are in EDT time to prevent confusion due to time zone crossing. See the N488VC flight status page for this flight to view local times or setup timezone preferences in your user account.

Time Position Orientation Groundspeed Altitude Reporting Facility
EDT Latitude Longitude Course Direction KTS MPH feet Rate Location/Type
07:13PM 41.0333 -73.7167 288° West 197 227 2,200  Level New York TRACON
07:14PM 41.0500 -73.7833 288° West 241 277 4,500 2,880 Climbing New York TRACON
07:15PM 41.1000 -73.8500 315° West 271 312 8,000 3,120 Climbing New York TRACON
07:16PM 41.1500 -73.7833 45° Northeast 266 306 10,800 2,400 Climbing New York TRACON
07:17PM 41.2000 -73.6833 56° Northeast 321 369 12,800 1,200 Climbing New York TRACON
07:19PM 41.2897 -73.4042 67° East 361 415 15,000 600 Climbing Boston Center
07:20PM 41.3344 -73.2833 64° Northeast 356 410 15,000  Level Boston Center
07:21PM 41.3811 -73.1483 65° Northeast 361 415 15,000  Level Boston Center
07:22PM 41.4275 -73.0436 59° Northeast 361 415 15,000  Level Boston Center
07:23PM 41.4844 -72.9139 60° Northeast 361 415 15,000  Level Boston Center
07:24PM 41.5286 -72.8089 61° Northeast 361 415 15,000  Level Boston Center
07:25PM 41.5706 -72.7119 60° Northeast 361 415 15,000  Level Boston Center
07:26PM 41.6042 -72.6289 62° Northeast 370 426 15,000 -240 Level Boston Center
07:26PM 41.6356 -72.5733 53° Northeast 361 415 14,800 -1,680 Descending Boston Center
07:27PM 41.7147 -72.4678 45° Northeast 361 415 12,400 -1,980 Descending Boston Center
07:28PM 41.7878 -72.3900 38° Northeast 343 395 11,000 -720 Descending Boston Center
07:29PM 41.8583 -72.3064 41° Northeast 347 399 11,000 -660 Level Boston Center
07:30PM 41.9231 -72.2364 39° Northeast 276 318 9,700 -1,380 Descending Boston Center
07:31PM 41.9644 -72.1889 40° Northeast 255 293 8,600 -1,560 Descending Boston Center
07:32PM 42.0247 -72.1214 40° Northeast 255 293 6,600 -1,740 Descending Boston Center
07:33PM 42.0850 -72.0483 42° Northeast 255 293 4,800 -1,500 Descending Boston Center
07:34PM 42.1308 -72.0006 38° Northeast 250 288 4,000 -540 Descending Boston Center
07:35PM 42.1681 -71.9611 38° Northeast 237 273 4,000  Level Boston Center
07:35PM 42.1908 -71.9358 39° Northeast 244 281 4,000 60 Level Boston Center
07:36PM 42.2428 -71.8736 42° Northeast 244 281 4,100  Climbing Boston Center
07:37PM 42.2903 -71.8228 38° Northeast 244 281 4,100 -60 Level Boston Center
07:38PM 42.3483 -71.7603 38° Northeast 244 281 4,000 -60 Descending Boston Center
07:39PM 42.4022 -71.6894 44° Northeast 239 275 4,000 -480 Level Boston Center
07:40PM 42.4517 -71.6156 48° Northeast 234 269 3,100 -540 Descending Boston Center
07:41PM 42.4761 -71.5647 57° Northeast 229 264 3,000  Descending Boston Center
07:42PM 42.4833 -71.5167 78° East 222 255 3,100 -600 Climbing KA90
07:43PM 42.4833 -71.4333 90° East 197 227 2,200 -960 Descending KA90
07:44PM 42.4833 -71.3667 90° East 164 189 1,200 -960 Descending KA90